CheckWX is a tool to help pilots better visualize weather data.  It is not intended as a substitute for an official pre-flight weather briefing.

08:59:45 UTC

KCWF METAR
Chennault International Airport
Lake Charles, Louisiana, USA
Current

25 mins ago

KCWF 220835Z 04003KT 1 1/4SM OVC002 11/11 A2997 RMK AO2 T01100108 PWINO
Observed
Feb-22 @ 08:35 UTC
Wind
  • 040° at 3 KTS
Visibility
1 1/4 SM
Flight Rules
LIFR
Cloud Levels
  • Overcast at 200' AGL
Temperature
11°C / 52°F
Dewpoint
11°C / 52°F
Humidity
100%
Altimeter
29.97" Hg
Pressure
1014.92 hPa
Previous

45 mins ago

KCWF 220815Z 05005KT 1 1/2SM OVC002 11/11 A2997 RMK AO2 T01090108 PWINO
Observed
Feb-22 @ 08:15 UTC
Wind
  • 050° at 5 KTS
Visibility
1 1/2 SM
Flight Rules
LIFR
Cloud Levels
  • Overcast at 200' AGL
Temperature
11°C / 52°F
Dewpoint
11°C / 52°F
Humidity
100%
Altimeter
29.97" Hg
Pressure
1014.92 hPa
Previous

1 hour ago

KCWF 220755Z 04004KT 1 3/4SM OVC002 11/11 A2997 RMK AO2 T01080107 PWINO
Observed
Feb-22 @ 07:55 UTC
Wind
  • 040° at 4 KTS
Visibility
1 3/4 SM
Flight Rules
LIFR
Cloud Levels
  • Overcast at 200' AGL
Temperature
11°C / 52°F
Dewpoint
11°C / 52°F
Humidity
100%
Altimeter
29.97" Hg
Pressure
1014.92 hPa